createdAt,value
2022-12-13T00:00:19.270Z,63.80
2022-12-13T00:02:46.411Z,63.63
2022-12-13T00:05:14.123Z,63.92
2022-12-13T00:07:40.674Z,63.42
2022-12-13T00:10:07.563Z,63.96
2022-12-13T00:12:33.961Z,63.71
2022-12-13T00:15:00.270Z,63.58
2022-12-13T00:17:26.683Z,63.58
2022-12-13T00:19:53.234Z,63.73
2022-12-13T00:22:19.571Z,63.62
2022-12-13T00:24:46.343Z,63.59
2022-12-13T00:27:12.809Z,63.23
2022-12-13T00:29:39.169Z,63.56
2022-12-13T00:32:05.633Z,63.05
2022-12-13T00:34:32.075Z,63.62
2022-12-13T00:36:58.968Z,63.21
2022-12-13T00:39:25.371Z,63.35
2022-12-13T00:41:51.707Z,63.10
2022-12-13T00:44:19.762Z,63.43
2022-12-13T00:46:46.191Z,63.25
2022-12-13T00:49:13.406Z,63.75
2022-12-13T00:51:40.516Z,63.77
2022-12-13T00:54:07.040Z,63.33
2022-12-13T00:56:33.779Z,63.66
2022-12-13T00:59:00.338Z,63.38
2022-12-13T01:01:29.749Z,63.10
2022-12-13T01:03:59.217Z,63.83
2022-12-13T01:06:37.096Z,63.52
2022-12-13T01:09:06.777Z,63.74
2022-12-13T01:11:33.424Z,63.10
2022-12-13T01:14:00.100Z,63.82
2022-12-13T01:16:26.579Z,63.81
2022-12-13T01:18:52.953Z,63.76
2022-12-13T01:21:20.966Z,63.50
2022-12-13T01:23:49.035Z,63.86
2022-12-13T01:26:21.261Z,64.10
2022-12-13T01:28:48.323Z,63.97
2022-12-13T01:31:17.983Z,64.60
2022-12-13T01:33:44.382Z,64.67
2022-12-13T01:36:15.190Z,64.64
2022-12-13T01:38:42.407Z,63.90
2022-12-13T01:41:18.332Z,63.71
2022-12-13T01:43:44.953Z,63.76
2022-12-13T01:46:12.779Z,63.43
2022-12-13T01:48:45.077Z,63.46
2022-12-13T01:51:15.514Z,63.43
2022-12-13T01:53:45.335Z,63.94
2022-12-13T01:56:17.728Z,64.03
2022-12-13T01:58:45.687Z,63.27
2022-12-13T02:01:12.069Z,63.76
2022-12-13T02:03:38.823Z,63.75
2022-12-13T02:06:10.827Z,63.50
2022-12-13T02:08:40.128Z,64.15
2022-12-13T02:11:07.746Z,64.28
2022-12-13T02:13:34.183Z,64.52
2022-12-13T02:16:32.041Z,63.85
2022-12-13T02:19:34.272Z,63.73
2022-12-13T02:22:26.746Z,63.91
2022-12-13T02:25:28.929Z,63.47
2022-12-13T02:28:05.074Z,63.35
2022-12-13T02:30:54.590Z,63.26
2022-12-13T02:33:44.594Z,63.10
2022-12-13T02:36:24.350Z,63.27
2022-12-13T02:39:08.296Z,63.77
2022-12-13T02:41:46.389Z,63.87
2022-12-13T02:44:22.790Z,63.75
2022-12-13T02:46:59.933Z,63.38
2022-12-13T02:49:32.295Z,63.13
2022-12-13T02:52:00.350Z,62.83
2022-12-13T02:54:26.905Z,62.84
2022-12-13T02:56:54.863Z,63.34
2022-12-13T02:59:23.801Z,63.22
2022-12-13T03:02:30.606Z,62.87
2022-12-13T03:05:36.076Z,63.25
2022-12-13T03:08:22.175Z,63.41
2022-12-13T03:11:05.592Z,63.40
2022-12-13T03:13:48.910Z,62.70
2022-12-13T03:16:44.171Z,63.18
2022-12-13T03:19:12.228Z,62.87
2022-12-13T03:21:47.931Z,62.92
2022-12-13T03:24:17.909Z,63.10
2022-12-13T03:26:45.242Z,63.59
2022-12-13T03:29:11.579Z,63.29
2022-12-13T03:31:38.609Z,63.74
2022-12-13T03:34:04.930Z,63.21
2022-12-13T03:36:31.389Z,63.91
2022-12-13T03:38:57.997Z,63.27
2022-12-13T03:41:31.460Z,63.42
2022-12-13T03:44:08.511Z,63.54
2022-12-13T03:46:35.052Z,63.00
2022-12-13T03:49:01.607Z,63.18
2022-12-13T03:51:28.002Z,62.95
2022-12-13T03:53:54.345Z,63.48
2022-12-13T03:56:20.769Z,63.31
2022-12-13T03:58:47.091Z,62.65
2022-12-13T04:01:16.129Z,64.06
2022-12-13T04:03:44.700Z,63.70
2022-12-13T04:06:12.359Z,63.36
2022-12-13T04:08:39.422Z,63.20
2022-12-13T04:11:26.114Z,63.69
2022-12-13T04:13:53.965Z,63.87
2022-12-13T04:16:20.839Z,63.56
2022-12-13T04:18:47.483Z,63.76
2022-12-13T04:21:13.972Z,64.05
2022-12-13T04:23:40.356Z,63.86
2022-12-13T04:26:06.705Z,63.95
2022-12-13T04:28:33.202Z,64.31
2022-12-13T04:30:59.565Z,63.83
2022-12-13T04:33:25.968Z,63.99
2022-12-13T04:35:52.512Z,63.99
2022-12-13T04:38:19.389Z,63.71
2022-12-13T04:40:46.221Z,63.85
2022-12-13T04:43:12.616Z,63.79
2022-12-13T04:45:39.044Z,63.56
2022-12-13T04:48:05.831Z,63.03
2022-12-13T04:50:32.234Z,63.54
2022-12-13T04:52:58.565Z,62.72
2022-12-13T04:55:24.919Z,62.90
2022-12-13T04:57:51.372Z,62.85
2022-12-13T05:00:18.002Z,62.81
2022-12-13T05:02:44.382Z,63.10
2022-12-13T05:05:11.636Z,62.61
2022-12-13T05:07:42.100Z,63.03
2022-12-13T05:10:10.979Z,62.96
2022-12-13T05:12:37.309Z,62.81
2022-12-13T05:15:03.973Z,63.26
2022-12-13T05:17:30.495Z,62.58
2022-12-13T05:19:56.797Z,62.72
2022-12-13T05:22:23.182Z,62.91
2022-12-13T05:24:49.673Z,62.54
2022-12-13T05:27:25.220Z,62.61
2022-12-13T05:30:03.759Z,62.70
2022-12-13T05:32:42.597Z,63.01
2022-12-13T05:35:11.246Z,63.42
2022-12-13T05:37:37.613Z,63.40
2022-12-13T05:40:05.307Z,62.80
2022-12-13T05:42:31.746Z,63.06
2022-12-13T05:44:58.078Z,63.16
2022-12-13T05:47:24.626Z,62.92
2022-12-13T05:49:52.072Z,63.22
2022-12-13T05:52:20.406Z,63.51
2022-12-13T05:54:46.921Z,63.00
2022-12-13T05:57:13.949Z,62.99
2022-12-13T05:59:40.273Z,63.73
2022-12-13T06:02:06.954Z,63.79
2022-12-13T06:04:33.400Z,62.86
2022-12-13T06:06:59.742Z,62.83
2022-12-13T06:09:26.108Z,63.10
2022-12-13T06:11:52.566Z,62.90
2022-12-13T06:14:27.736Z,63.22
2022-12-13T06:16:54.181Z,62.83
2022-12-13T06:19:21.787Z,63.22
2022-12-13T06:21:48.789Z,63.16
2022-12-13T06:24:17.087Z,62.86
2022-12-13T06:26:45.060Z,62.88
2022-12-13T06:29:13.822Z,62.73
2022-12-13T06:32:01.035Z,63.54
2022-12-13T06:34:30.148Z,62.97
2022-12-13T06:36:57.151Z,63.58
2022-12-13T06:39:23.571Z,63.43
2022-12-13T06:41:49.912Z,62.74
2022-12-13T06:44:16.255Z,63.26
2022-12-13T06:46:42.879Z,63.08
2022-12-13T06:49:09.524Z,62.82
2022-12-13T06:51:35.914Z,63.16
2022-12-13T06:54:02.835Z,63.34
2022-12-13T06:56:30.081Z,62.94
2022-12-13T06:59:01.423Z,63.54
2022-12-13T07:01:36.627Z,62.60
2022-12-13T07:04:03.945Z,63.33
2022-12-13T07:06:30.322Z,63.21
2022-12-13T07:08:57.713Z,62.85
2022-12-13T07:11:26.800Z,62.71
2022-12-13T07:13:53.898Z,62.92
2022-12-13T07:16:22.056Z,62.85
2022-12-13T07:18:53.303Z,63.07
2022-12-13T07:21:28.139Z,63.24
2022-12-13T07:23:55.417Z,62.94
2022-12-13T07:26:22.507Z,63.28
2022-12-13T07:28:54.668Z,62.68
2022-12-13T07:31:21.707Z,62.78
2022-12-13T07:33:48.159Z,62.95
2022-12-13T07:36:17.162Z,63.47
2022-12-13T07:38:43.510Z,62.69
2022-12-13T07:41:11.773Z,62.62
2022-12-13T07:43:38.403Z,62.68
2022-12-13T07:46:06.761Z,63.29
2022-12-13T07:48:33.689Z,63.78
2022-12-13T07:51:06.851Z,63.73
2022-12-13T07:53:34.353Z,63.01
2022-12-13T07:56:05.310Z,62.79
2022-12-13T07:58:33.322Z,62.81
2022-12-13T08:01:01.635Z,63.44
2022-12-13T08:03:28.440Z,63.21
2022-12-13T08:06:19.161Z,63.10
2022-12-13T08:08:46.443Z,63.33
2022-12-13T08:11:15.387Z,63.37
2022-12-13T08:13:41.870Z,63.64
2022-12-13T08:16:28.158Z,62.92
2022-12-13T08:19:03.162Z,63.48
2022-12-13T08:21:57.346Z,63.41
2022-12-13T08:24:26.609Z,63.78
2022-12-13T08:26:53.006Z,63.60
2022-12-13T08:29:23.385Z,63.88
2022-12-13T08:32:06.511Z,63.48
2022-12-13T08:34:32.941Z,63.91
2022-12-13T08:37:02.397Z,64.02
2022-12-13T08:39:37.599Z,64.48
2022-12-13T08:42:18.803Z,64.18
2022-12-13T08:44:47.783Z,64.46
2022-12-13T08:47:23.377Z,64.46
2022-12-13T08:49:55.813Z,64.52
2022-12-13T08:52:28.880Z,64.83
2022-12-13T08:54:55.289Z,63.99
2022-12-13T08:57:21.611Z,64.23
2022-12-13T08:59:47.966Z,64.04
2022-12-13T09:02:15.195Z,64.69
2022-12-13T09:04:42.261Z,64.25
2022-12-13T09:07:08.710Z,64.34
2022-12-13T09:09:35.048Z,64.63
2022-12-13T09:12:10.852Z,64.41
2022-12-13T09:14:50.643Z,63.97
2022-12-13T09:17:24.021Z,64.57
2022-12-13T09:19:51.768Z,64.45
2022-12-13T09:22:33.338Z,64.04
2022-12-13T09:25:02.340Z,64.32
2022-12-13T09:27:30.471Z,64.18
2022-12-13T09:29:57.332Z,64.36
2022-12-13T09:32:24.778Z,64.61
2022-12-13T09:34:51.260Z,64.16
2022-12-13T09:37:23.034Z,64.79
2022-12-13T09:39:54.973Z,64.08
2022-12-13T09:42:30.598Z,64.29
2022-12-13T09:45:06.379Z,64.43
2022-12-13T09:47:51.005Z,64.40
2022-12-13T09:50:38.645Z,64.28
2022-12-13T09:53:12.082Z,64.71
2022-12-13T09:55:50.033Z,64.68
2022-12-13T09:58:23.828Z,64.71
2022-12-13T10:00:53.558Z,64.36
2022-12-13T10:03:21.900Z,64.45
2022-12-13T10:05:58.681Z,64.03
2022-12-13T10:08:35.431Z,64.69
2022-12-13T10:11:01.769Z,64.27
2022-12-13T10:13:48.651Z,63.97
2022-12-13T10:16:28.319Z,64.16
2022-12-13T10:19:29.299Z,64.40
2022-12-13T10:22:02.288Z,64.14
2022-12-13T10:24:48.385Z,64.04
2022-12-13T10:27:25.471Z,63.70
2022-12-13T10:30:00.658Z,63.94
2022-12-13T10:32:27.633Z,63.51
2022-12-13T10:34:57.250Z,63.56
2022-12-13T10:37:23.517Z,63.87
2022-12-13T10:39:50.258Z,63.79
2022-12-13T10:42:23.563Z,63.58
2022-12-13T10:45:15.529Z,63.92
2022-12-13T10:47:44.578Z,63.92
2022-12-13T10:50:24.561Z,63.48
2022-12-13T10:52:51.491Z,63.85
2022-12-13T10:55:38.162Z,63.74
2022-12-13T10:58:07.344Z,63.72
2022-12-13T11:00:45.175Z,63.42
2022-12-13T11:03:34.800Z,63.55
2022-12-13T11:06:15.353Z,63.53
2022-12-13T11:08:41.776Z,63.86
2022-12-13T11:11:09.443Z,63.50
2022-12-13T11:13:46.432Z,63.67
2022-12-13T11:16:21.100Z,63.26
2022-12-13T11:18:53.733Z,63.30
2022-12-13T11:21:26.380Z,63.17
2022-12-13T11:23:56.194Z,63.06
2022-12-13T11:26:28.674Z,63.40
2022-12-13T11:29:00.725Z,62.97
2022-12-13T11:31:53.844Z,63.34
2022-12-13T11:34:54.119Z,62.79
2022-12-13T11:37:39.718Z,62.95
2022-12-13T11:40:16.927Z,62.79
2022-12-13T11:42:49.706Z,62.47
2022-12-13T11:45:31.726Z,62.55
2022-12-13T11:48:10.406Z,62.66
2022-12-13T11:50:42.974Z,62.61
2022-12-13T11:53:20.155Z,62.23
2022-12-13T11:55:54.227Z,62.37
2022-12-13T11:59:00.651Z,62.14
2022-12-13T12:01:32.107Z,61.78
2022-12-13T12:04:19.343Z,62.10
2022-12-13T12:07:08.283Z,61.93
2022-12-13T12:09:55.658Z,61.97
2022-12-13T12:12:31.913Z,62.07
2022-12-13T12:15:16.121Z,61.94
2022-12-13T12:17:43.952Z,61.93
2022-12-13T12:20:14.533Z,61.79
2022-12-13T12:23:14.540Z,61.61
2022-12-13T12:25:54.006Z,61.73
2022-12-13T12:28:44.827Z,61.96
2022-12-13T12:31:34.803Z,61.63
2022-12-13T12:34:34.707Z,61.51
2022-12-13T12:37:20.339Z,61.50
2022-12-13T12:39:58.816Z,61.08
2022-12-13T12:43:13.288Z,61.16
2022-12-13T12:45:56.500Z,60.97
2022-12-13T12:48:56.480Z,60.90
2022-12-13T12:51:38.412Z,60.97
2022-12-13T12:54:32.763Z,61.15
2022-12-13T12:57:11.504Z,60.67
2022-12-13T12:59:45.223Z,60.78
2022-12-13T13:02:26.599Z,60.51
2022-12-13T13:04:59.436Z,60.44
2022-12-13T13:07:43.297Z,59.99
2022-12-13T13:10:27.028Z,60.11
2022-12-13T13:13:11.725Z,60.12
2022-12-13T13:15:39.476Z,59.48
2022-12-13T13:18:46.269Z,59.76
2022-12-13T13:21:30.873Z,59.41
2022-12-13T13:24:09.249Z,59.38
2022-12-13T13:26:45.262Z,59.44
2022-12-13T13:29:27.156Z,59.49
2022-12-13T13:32:28.376Z,59.63
2022-12-13T13:35:37.526Z,59.49
2022-12-13T13:38:24.815Z,59.20
2022-12-13T13:40:51.387Z,58.89
2022-12-13T13:43:32.216Z,59.18
2022-12-13T13:46:02.099Z,59.29
2022-12-13T13:49:09.817Z,59.32
2022-12-13T13:52:16.809Z,59.47
2022-12-13T13:55:06.628Z,59.42
2022-12-13T13:58:10.891Z,59.49
2022-12-13T14:01:29.249Z,59.44
2022-12-13T14:04:27.099Z,59.42
2022-12-13T14:07:33.647Z,59.48
2022-12-13T14:10:20.405Z,59.47
2022-12-13T14:13:25.013Z,59.52
2022-12-13T14:16:07.579Z,59.53
2022-12-13T14:19:20.522Z,59.60
2022-12-13T14:22:01.224Z,59.36
2022-12-13T14:24:34.971Z,59.35
2022-12-13T14:27:24.725Z,59.12
2022-12-13T14:29:58.320Z,59.17
2022-12-13T14:32:29.042Z,59.43
2022-12-13T14:34:56.919Z,59.34
2022-12-13T14:37:32.280Z,59.33
2022-12-13T14:40:00.653Z,59.03
2022-12-13T14:42:35.649Z,59.04
2022-12-13T14:45:36.518Z,59.29
2022-12-13T14:48:14.161Z,59.21
2022-12-13T14:50:43.655Z,59.50
2022-12-13T14:53:25.493Z,59.53
2022-12-13T14:56:28.563Z,59.47
2022-12-13T14:59:12.126Z,59.46
2022-12-13T15:01:39.249Z,59.45
2022-12-13T15:04:24.215Z,59.55
2022-12-13T15:07:01.475Z,59.42
2022-12-13T15:09:29.380Z,59.36
2022-12-13T15:12:14.487Z,59.45
2022-12-13T15:14:53.512Z,59.62
2022-12-13T15:17:30.683Z,59.72
2022-12-13T15:19:58.063Z,59.70
2022-12-13T15:22:29.339Z,59.86
2022-12-13T15:24:57.840Z,59.65
2022-12-13T15:27:25.075Z,59.99
2022-12-13T15:29:52.079Z,60.21
2022-12-13T15:32:22.637Z,60.00
2022-12-13T15:34:51.084Z,59.96
2022-12-13T15:37:28.077Z,60.27
2022-12-13T15:40:00.433Z,60.50
2022-12-13T15:42:36.824Z,60.02
2022-12-13T15:45:25.722Z,60.81
2022-12-13T15:47:54.668Z,60.23
2022-12-13T15:50:35.135Z,60.19
2022-12-13T15:53:26.467Z,60.39
2022-12-13T15:55:53.225Z,60.29
2022-12-13T15:58:37.655Z,60.90
2022-12-13T16:01:06.984Z,60.94
2022-12-13T16:03:44.566Z,60.50
2022-12-13T16:06:18.068Z,60.46
2022-12-13T16:08:49.320Z,60.59
2022-12-13T16:11:24.800Z,60.36
2022-12-13T16:13:51.108Z,60.88
2022-12-13T16:16:31.165Z,60.60
2022-12-13T16:18:59.610Z,60.52
2022-12-13T16:21:27.578Z,60.78
2022-12-13T16:23:54.557Z,61.40
2022-12-13T16:26:23.929Z,61.06
2022-12-13T16:28:50.358Z,60.95
2022-12-13T16:31:25.667Z,61.18
2022-12-13T16:33:52.624Z,61.23
2022-12-13T16:36:20.073Z,61.63
2022-12-13T16:38:46.483Z,61.31
2022-12-13T16:41:14.602Z,61.58
2022-12-13T16:43:53.591Z,61.49
2022-12-13T16:47:12.237Z,61.56
2022-12-13T16:49:18.945Z,61.35
2022-12-13T16:51:48.498Z,60.70
2022-12-13T16:54:16.742Z,61.66
2022-12-13T16:56:43.479Z,60.93
2022-12-13T16:59:14.838Z,61.30
2022-12-13T17:01:42.315Z,60.94
2022-12-13T17:04:19.651Z,60.96
2022-12-13T17:06:48.047Z,61.21
2022-12-13T17:09:14.355Z,61.00
2022-12-13T17:11:41.238Z,61.70
2022-12-13T17:14:07.602Z,61.80
2022-12-13T17:16:34.055Z,61.97
2022-12-13T17:19:00.489Z,61.32
2022-12-13T17:21:27.056Z,61.37
2022-12-13T17:23:54.844Z,61.53
2022-12-13T17:26:21.407Z,61.86
2022-12-13T17:28:48.075Z,61.98
2022-12-13T17:31:14.493Z,61.84
2022-12-13T17:33:41.833Z,61.94
2022-12-13T17:36:09.719Z,61.26
2022-12-13T17:38:37.555Z,61.63
2022-12-13T17:41:03.983Z,62.19
2022-12-13T17:43:34.660Z,62.34
2022-12-13T17:46:03.814Z,62.22
2022-12-13T17:48:37.211Z,62.08
2022-12-13T17:51:08.194Z,62.67
2022-12-13T17:53:35.690Z,62.63
2022-12-13T17:56:05.562Z,62.38
2022-12-13T17:58:32.222Z,62.17
2022-12-13T18:00:59.563Z,62.55
2022-12-13T18:03:26.676Z,62.35
2022-12-13T18:05:58.031Z,62.00
2022-12-13T18:08:27.116Z,62.08
2022-12-13T18:11:24.030Z,62.09
2022-12-13T18:13:44.194Z,62.37
2022-12-13T18:16:13.697Z,62.12
2022-12-13T18:18:40.416Z,62.04
2022-12-13T18:21:12.463Z,62.16
2022-12-13T18:23:39.062Z,61.85
2022-12-13T18:26:11.038Z,61.59
2022-12-13T18:28:38.635Z,61.87
2022-12-13T18:31:09.328Z,61.59
2022-12-13T18:33:36.107Z,61.66
2022-12-13T18:36:02.652Z,61.98
2022-12-13T18:38:35.996Z,61.58
2022-12-13T18:41:07.213Z,61.87
2022-12-13T18:43:33.609Z,61.94
2022-12-13T18:46:02.787Z,61.48
2022-12-13T18:48:29.795Z,61.79
2022-12-13T18:51:00.122Z,61.86
2022-12-13T18:53:28.269Z,61.52
2022-12-13T18:56:02.580Z,61.83
2022-12-13T18:58:29.003Z,61.30
2022-12-13T19:00:57.313Z,61.37
2022-12-13T19:03:25.266Z,61.00
2022-12-13T19:05:52.985Z,60.90
2022-12-13T19:08:19.294Z,60.93
2022-12-13T19:10:46.091Z,61.04
2022-12-13T19:13:12.410Z,61.22
2022-12-13T19:15:40.319Z,61.24
2022-12-13T19:18:06.928Z,61.12
2022-12-13T19:20:33.307Z,60.68
2022-12-13T19:22:59.695Z,60.76
2022-12-13T19:25:26.028Z,61.30
2022-12-13T19:27:56.548Z,60.86
2022-12-13T19:30:23.727Z,61.35
2022-12-13T19:32:51.143Z,61.09
2022-12-13T19:35:19.359Z,60.65
2022-12-13T19:37:45.759Z,61.16
2022-12-13T19:40:12.263Z,60.51
2022-12-13T19:42:38.586Z,60.71
2022-12-13T19:45:05.850Z,60.57
2022-12-13T19:47:32.194Z,61.00
2022-12-13T19:49:58.503Z,60.65
2022-12-13T19:52:24.826Z,61.28
2022-12-13T19:54:51.151Z,61.06
2022-12-13T19:57:17.498Z,61.34
2022-12-13T19:59:43.899Z,61.14
2022-12-13T20:02:13.734Z,60.87
2022-12-13T20:04:40.656Z,60.67
2022-12-13T20:07:07.088Z,60.81
2022-12-13T20:09:33.511Z,60.53
2022-12-13T20:11:59.838Z,61.25
2022-12-13T20:14:26.171Z,60.59
2022-12-13T20:16:52.648Z,61.02
2022-12-13T20:19:19.247Z,60.97
2022-12-13T20:21:46.348Z,60.78
2022-12-13T20:24:12.707Z,61.29
2022-12-13T20:26:39.040Z,60.91
2022-12-13T20:29:05.504Z,61.04
2022-12-13T20:31:34.325Z,60.94
2022-12-13T20:34:08.990Z,60.93
2022-12-13T20:36:36.442Z,60.23
2022-12-13T20:39:04.881Z,60.18
2022-12-13T20:41:33.321Z,59.92
2022-12-13T20:44:00.928Z,60.24
2022-12-13T20:46:28.862Z,59.82
2022-12-13T20:48:57.611Z,59.67
2022-12-13T20:51:26.521Z,59.93
2022-12-13T20:53:53.741Z,59.66
2022-12-13T20:56:22.942Z,59.48
2022-12-13T20:58:50.291Z,59.29
2022-12-13T21:01:19.168Z,59.63
2022-12-13T21:03:46.538Z,59.66
2022-12-13T21:06:13.190Z,59.17
2022-12-13T21:08:51.845Z,58.94
2022-12-13T21:11:25.992Z,59.39
2022-12-13T21:13:55.314Z,59.23
2022-12-13T21:16:23.315Z,58.96
2022-12-13T21:18:52.671Z,59.02
2022-12-13T21:21:19.721Z,59.01
2022-12-13T21:23:47.189Z,58.81
2022-12-13T21:26:13.754Z,58.52
2022-12-13T21:28:40.548Z,58.93
2022-12-13T21:31:09.426Z,58.43
2022-12-13T21:33:37.585Z,58.35
2022-12-13T21:36:16.607Z,58.91
2022-12-13T21:38:44.036Z,58.64
2022-12-13T21:41:11.410Z,58.64
2022-12-13T21:43:39.046Z,58.67
2022-12-13T21:46:12.236Z,58.40
2022-12-13T21:48:40.513Z,58.49
2022-12-13T21:51:08.893Z,58.04
2022-12-13T21:53:35.349Z,58.50
2022-12-13T21:56:20.126Z,58.09
2022-12-13T21:59:05.537Z,58.57
2022-12-13T22:01:50.295Z,58.26
2022-12-13T22:04:18.378Z,58.18
2022-12-13T22:06:44.889Z,58.02
2022-12-13T22:09:11.583Z,57.97
2022-12-13T22:11:38.623Z,57.97
2022-12-13T22:14:05.794Z,57.79
2022-12-13T22:16:32.613Z,58.12
2022-12-13T22:18:59.056Z,57.65
2022-12-13T22:21:25.573Z,58.28
2022-12-13T22:23:55.808Z,58.24
2022-12-13T22:26:23.898Z,57.72
2022-12-13T22:28:51.075Z,57.81
2022-12-13T22:31:18.264Z,57.77
2022-12-13T22:33:44.913Z,57.68
2022-12-13T22:36:11.800Z,57.44
2022-12-13T22:38:38.338Z,57.58
2022-12-13T22:41:06.113Z,57.61
2022-12-13T22:43:36.124Z,57.64
2022-12-13T22:46:08.337Z,57.53
2022-12-13T22:48:35.249Z,57.33
2022-12-13T22:51:11.680Z,57.50
2022-12-13T22:53:38.962Z,57.66
2022-12-13T22:56:08.130Z,57.77
2022-12-13T22:58:35.772Z,57.48
2022-12-13T23:01:09.321Z,57.33
2022-12-13T23:03:37.354Z,57.37
2022-12-13T23:06:08.782Z,57.49
2022-12-13T23:08:38.884Z,57.29
2022-12-13T23:11:29.214Z,57.53
2022-12-13T23:13:58.146Z,57.29
2022-12-13T23:16:27.430Z,57.27
2022-12-13T23:19:10.925Z,57.21
2022-12-13T23:21:41.949Z,57.39
2022-12-13T23:24:15.111Z,56.92
2022-12-13T23:26:41.796Z,57.12
2022-12-13T23:29:09.425Z,56.96
2022-12-13T23:31:39.081Z,57.08
2022-12-13T23:34:06.223Z,57.06
2022-12-13T23:36:34.191Z,56.79
2022-12-13T23:39:02.517Z,56.92
2022-12-13T23:41:33.744Z,57.22
2022-12-13T23:44:01.437Z,56.77
2022-12-13T23:46:33.841Z,57.12
2022-12-13T23:49:01.898Z,56.60
2022-12-13T23:51:29.188Z,56.87
2022-12-13T23:53:55.859Z,57.04
2022-12-13T23:56:23.498Z,56.95
2022-12-13T23:58:50.524Z,56.63
